sensor_id;sensor_type;location;lat;lon;timestamp;pressure;altitude;pressure_sealevel;temperature;humidity
6567;BME280;3317;43.994;22.878;2023-06-19T00:01:12;100885.09;;;22.56;56.62
6567;BME280;3317;43.994;22.878;2023-06-19T00:03:39;100887.84;;;22.56;56.36
6567;BME280;3317;43.994;22.878;2023-06-19T00:06:08;100867.91;;;22.54;56.53
6567;BME280;3317;43.994;22.878;2023-06-19T00:08:35;100874.50;;;22.53;56.70
6567;BME280;3317;43.994;22.878;2023-06-19T00:11:02;100857.59;;;22.43;56.96
6567;BME280;3317;43.994;22.878;2023-06-19T00:13:29;100860.69;;;22.53;56.70
6567;BME280;3317;43.994;22.878;2023-06-19T00:15:56;100860.06;;;22.51;56.37
6567;BME280;3317;43.994;22.878;2023-06-19T00:18:25;100855.88;;;22.48;56.50
6567;BME280;3317;43.994;22.878;2023-06-19T00:20:52;100851.59;;;22.46;56.49
6567;BME280;3317;43.994;22.878;2023-06-19T00:23:23;100858.44;;;22.43;56.57
6567;BME280;3317;43.994;22.878;2023-06-19T00:25:49;100856.13;;;22.40;56.70
6567;BME280;3317;43.994;22.878;2023-06-19T00:28:16;100850.00;;;22.38;56.42
6567;BME280;3317;43.994;22.878;2023-06-19T00:30:45;100859.59;;;22.35;56.69
6567;BME280;3317;43.994;22.878;2023-06-19T00:33:12;100850.09;;;22.31;56.81
6567;BME280;3317;43.994;22.878;2023-06-19T00:35:39;100864.72;;;22.32;56.67
6567;BME280;3317;43.994;22.878;2023-06-19T00:38:07;100862.19;;;22.30;57.06
6567;BME280;3317;43.994;22.878;2023-06-19T00:40:36;100861.88;;;22.20;57.12
6567;BME280;3317;43.994;22.878;2023-06-19T00:43:03;100870.97;;;22.20;57.03
6567;BME280;3317;43.994;22.878;2023-06-19T00:45:30;100874.22;;;22.17;57.25
6567;BME280;3317;43.994;22.878;2023-06-19T00:47:58;100870.84;;;22.15;57.39
6567;BME280;3317;43.994;22.878;2023-06-19T00:50:27;100858.13;;;22.14;57.47
6567;BME280;3317;43.994;22.878;2023-06-19T00:52:55;100852.53;;;22.02;57.63
6567;BME280;3317;43.994;22.878;2023-06-19T00:55:25;100856.50;;;22.06;57.59
6567;BME280;3317;43.994;22.878;2023-06-19T00:57:53;100865.84;;;22.05;57.66
6567;BME280;3317;43.994;22.878;2023-06-19T01:00:21;100873.53;;;22.03;57.74
6567;BME280;3317;43.994;22.878;2023-06-19T01:02:48;100870.16;;;22.01;57.52
6567;BME280;3317;43.994;22.878;2023-06-19T01:05:15;100874.41;;;21.97;57.39
6567;BME280;3317;43.994;22.878;2023-06-19T01:07:47;100866.81;;;21.92;57.54
6567;BME280;3317;43.994;22.878;2023-06-19T01:10:18;100856.75;;;21.79;57.43
6567;BME280;3317;43.994;22.878;2023-06-19T01:12:51;100866.03;;;21.85;57.80
6567;BME280;3317;43.994;22.878;2023-06-19T01:15:22;100873.94;;;21.82;57.58
6567;BME280;3317;43.994;22.878;2023-06-19T01:17:49;100884.56;;;21.78;57.66
6567;BME280;3317;43.994;22.878;2023-06-19T01:20:17;100876.13;;;21.73;57.76
6567;BME280;3317;43.994;22.878;2023-06-19T01:22:45;100872.34;;;21.67;57.76
6567;BME280;3317;43.994;22.878;2023-06-19T01:25:13;100869.78;;;21.65;57.56
6567;BME280;3317;43.994;22.878;2023-06-19T01:27:41;100861.16;;;21.55;57.75
6567;BME280;3317;43.994;22.878;2023-06-19T01:30:09;100875.09;;;21.67;57.53
6567;BME280;3317;43.994;22.878;2023-06-19T01:32:46;100880.81;;;21.65;57.81
6567;BME280;3317;43.994;22.878;2023-06-19T01:35:15;100879.56;;;21.61;57.78
6567;BME280;3317;43.994;22.878;2023-06-19T01:37:46;100878.72;;;21.61;57.48
6567;BME280;3317;43.994;22.878;2023-06-19T01:40:14;100879.84;;;21.53;57.78
6567;BME280;3317;43.994;22.878;2023-06-19T01:42:43;100870.56;;;21.47;57.79
6567;BME280;3317;43.994;22.878;2023-06-19T01:45:10;100878.56;;;21.56;57.63
6567;BME280;3317;43.994;22.878;2023-06-19T01:47:37;100884.06;;;21.56;57.76
6567;BME280;3317;43.994;22.878;2023-06-19T01:50:05;100876.06;;;21.47;57.62
6567;BME280;3317;43.994;22.878;2023-06-19T01:52:32;100875.00;;;21.48;58.23
6567;BME280;3317;43.994;22.878;2023-06-19T01:55:01;100881.97;;;21.51;58.29
6567;BME280;3317;43.994;22.878;2023-06-19T01:57:28;100876.47;;;21.51;57.85
6567;BME280;3317;43.994;22.878;2023-06-19T01:59:55;100872.47;;;21.47;58.05
6567;BME280;3317;43.994;22.878;2023-06-19T02:02:21;100874.78;;;21.50;58.46
6567;BME280;3317;43.994;22.878;2023-06-19T02:04:48;100875.00;;;21.48;58.53
6567;BME280;3317;43.994;22.878;2023-06-19T02:07:15;100878.22;;;21.45;58.15
6567;BME280;3317;43.994;22.878;2023-06-19T02:09:42;100882.03;;;21.44;58.28
6567;BME280;3317;43.994;22.878;2023-06-19T02:12:11;100846.56;;;21.22;58.32
6567;BME280;3317;43.994;22.878;2023-06-19T02:14:38;100879.94;;;21.39;57.96
6567;BME280;3317;43.994;22.878;2023-06-19T02:17:05;100886.75;;;21.37;58.04
6567;BME280;3317;43.994;22.878;2023-06-19T02:19:32;100884.44;;;21.34;58.39
6567;BME280;3317;43.994;22.878;2023-06-19T02:21:59;100885.75;;;21.31;58.07
6567;BME280;3317;43.994;22.878;2023-06-19T02:24:25;100895.91;;;21.31;58.17
6567;BME280;3317;43.994;22.878;2023-06-19T02:26:52;100894.44;;;21.28;58.20
6567;BME280;3317;43.994;22.878;2023-06-19T02:29:21;100897.63;;;21.25;58.14
6567;BME280;3317;43.994;22.878;2023-06-19T02:31:48;100905.06;;;21.24;58.31
6567;BME280;3317;43.994;22.878;2023-06-19T02:34:15;100900.84;;;21.22;58.09
6567;BME280;3317;43.994;22.878;2023-06-19T02:36:42;100911.00;;;21.21;58.43
6567;BME280;3317;43.994;22.878;2023-06-19T02:39:12;100901.28;;;21.19;58.40
6567;BME280;3317;43.994;22.878;2023-06-19T02:41:39;100913.38;;;21.18;58.22
6567;BME280;3317;43.994;22.878;2023-06-19T02:44:08;100855.25;;;20.87;58.60
6567;BME280;3317;43.994;22.878;2023-06-19T02:46:37;100904.69;;;21.14;58.46
6567;BME280;3317;43.994;22.878;2023-06-19T02:49:04;100880.84;;;20.94;58.33
6567;BME280;3317;43.994;22.878;2023-06-19T02:51:31;100883.63;;;20.88;58.65
6567;BME280;3317;43.994;22.878;2023-06-19T02:53:58;100914.06;;;21.06;58.11
6567;BME280;3317;43.994;22.878;2023-06-19T02:56:26;100917.91;;;21.05;58.13
6567;BME280;3317;43.994;22.878;2023-06-19T02:58:54;100917.03;;;21.05;58.15
6567;BME280;3317;43.994;22.878;2023-06-19T03:01:21;100914.50;;;21.03;58.52
6567;BME280;3317;43.994;22.878;2023-06-19T03:03:49;100911.97;;;21.02;58.47
6567;BME280;3317;43.994;22.878;2023-06-19T03:06:18;100914.13;;;20.93;57.93
6567;BME280;3317;43.994;22.878;2023-06-19T03:08:46;100902.88;;;20.94;58.53
6567;BME280;3317;43.994;22.878;2023-06-19T03:11:13;100917.94;;;20.99;58.46
6567;BME280;3317;43.994;22.878;2023-06-19T03:13:45;100921.72;;;20.98;58.44
6567;BME280;3317;43.994;22.878;2023-06-19T03:16:13;100907.34;;;20.89;58.99
6567;BME280;3317;43.994;22.878;2023-06-19T03:18:40;100885.75;;;20.79;58.40
6567;BME280;3317;43.994;22.878;2023-06-19T03:21:09;100911.16;;;20.94;58.87
6567;BME280;3317;43.994;22.878;2023-06-19T03:23:36;100912.44;;;20.92;59.16
6567;BME280;3317;43.994;22.878;2023-06-19T03:26:02;100917.09;;;20.91;59.38
6567;BME280;3317;43.994;22.878;2023-06-19T03:28:29;100898.28;;;20.81;59.14
6567;BME280;3317;43.994;22.878;2023-06-19T03:30:56;100912.44;;;20.92;59.54
6567;BME280;3317;43.994;22.878;2023-06-19T03:33:24;100903.53;;;20.90;59.81
6567;BME280;3317;43.994;22.878;2023-06-19T03:35:51;100904.56;;;20.95;59.78
6567;BME280;3317;43.994;22.878;2023-06-19T03:38:19;100918.75;;;20.99;59.37
6567;BME280;3317;43.994;22.878;2023-06-19T03:40:46;100912.19;;;21.00;59.65
6567;BME280;3317;43.994;22.878;2023-06-19T03:43:13;100911.13;;;21.01;59.70
6567;BME280;3317;43.994;22.878;2023-06-19T03:45:41;100896.13;;;20.90;59.90
6567;BME280;3317;43.994;22.878;2023-06-19T03:48:08;100911.31;;;21.06;59.62
6567;BME280;3317;43.994;22.878;2023-06-19T03:50:35;100903.06;;;21.06;59.58
6567;BME280;3317;43.994;22.878;2023-06-19T03:53:02;100894.81;;;21.00;59.55
6567;BME280;3317;43.994;22.878;2023-06-19T03:55:31;100907.00;;;21.17;59.66
6567;BME280;3317;43.994;22.878;2023-06-19T03:57:58;100905.94;;;21.18;59.60
6567;BME280;3317;43.994;22.878;2023-06-19T04:00:25;100899.94;;;21.28;59.55
6567;BME280;3317;43.994;22.878;2023-06-19T04:02:52;100906.47;;;21.34;59.18
6567;BME280;3317;43.994;22.878;2023-06-19T04:05:19;100903.91;;;21.39;59.19
6567;BME280;3317;43.994;22.878;2023-06-19T04:07:46;100904.94;;;21.45;59.43
6567;BME280;3317;43.994;22.878;2023-06-19T04:10:13;100908.47;;;21.52;59.35
6567;BME280;3317;43.994;22.878;2023-06-19T04:12:42;100902.72;;;21.60;59.17
6567;BME280;3317;43.994;22.878;2023-06-19T04:15:10;100911.13;;;21.65;59.18
6567;BME280;3317;43.994;22.878;2023-06-19T04:17:37;100911.13;;;21.72;59.32
6567;BME280;3317;43.994;22.878;2023-06-19T04:20:05;100911.47;;;21.83;59.28
6567;BME280;3317;43.994;22.878;2023-06-19T04:22:36;100909.25;;;21.91;59.11
6567;BME280;3317;43.994;22.878;2023-06-19T04:25:05;100904.75;;;21.97;59.08
6567;BME280;3317;43.994;22.878;2023-06-19T04:27:32;100906.63;;;22.03;58.74
6567;BME280;3317;43.994;22.878;2023-06-19T04:30:02;100913.25;;;22.21;59.05
6567;BME280;3317;43.994;22.878;2023-06-19T04:32:29;100907.25;;;22.24;58.85
6567;BME280;3317;43.994;22.878;2023-06-19T04:34:56;100919.78;;;22.45;58.58
6567;BME280;3317;43.994;22.878;2023-06-19T04:37:23;100921.81;;;22.57;58.56
6567;BME280;3317;43.994;22.878;2023-06-19T04:39:50;100921.91;;;22.69;58.40
6567;BME280;3317;43.994;22.878;2023-06-19T04:42:17;100916.69;;;22.79;58.34
6567;BME280;3317;43.994;22.878;2023-06-19T04:44:46;100907.84;;;22.89;57.99
6567;BME280;3317;43.994;22.878;2023-06-19T04:47:17;100914.88;;;23.03;58.35
6567;BME280;3317;43.994;22.878;2023-06-19T04:49:44;100911.06;;;23.16;57.97
6567;BME280;3317;43.994;22.878;2023-06-19T04:52:11;100915.00;;;23.27;57.72
6567;BME280;3317;43.994;22.878;2023-06-19T04:54:38;100926.69;;;23.41;57.46
6567;BME280;3317;43.994;22.878;2023-06-19T04:57:05;100918.47;;;23.53;56.59
6567;BME280;3317;43.994;22.878;2023-06-19T04:59:33;100920.16;;;23.66;56.78
6567;BME280;3317;43.994;22.878;2023-06-19T05:02:00;100919.72;;;23.81;56.96
6567;BME280;3317;43.994;22.878;2023-06-19T05:04:30;100894.81;;;23.81;56.61
6567;BME280;3317;43.994;22.878;2023-06-19T05:06:58;100925.31;;;24.05;56.31
6567;BME280;3317;43.994;22.878;2023-06-19T05:09:25;100933.47;;;24.24;55.88
6567;BME280;3317;43.994;22.878;2023-06-19T05:11:53;100925.19;;;24.36;55.06
6567;BME280;3317;43.994;22.878;2023-06-19T05:14:20;100923.84;;;24.50;54.64
6567;BME280;3317;43.994;22.878;2023-06-19T05:16:47;100921.53;;;24.59;54.20
6567;BME280;3317;43.994;22.878;2023-06-19T05:19:14;100933.34;;;24.78;54.47
6567;BME280;3317;43.994;22.878;2023-06-19T05:21:42;100927.50;;;24.92;54.40
6567;BME280;3317;43.994;22.878;2023-06-19T05:24:09;100934.22;;;25.08;53.37
6567;BME280;3317;43.994;22.878;2023-06-19T05:26:36;100932.84;;;25.22;53.17
6567;BME280;3317;43.994;22.878;2023-06-19T05:29:03;100940.56;;;25.37;53.16
6567;BME280;3317;43.994;22.878;2023-06-19T05:31:34;100935.97;;;25.55;52.80
6567;BME280;3317;43.994;22.878;2023-06-19T05:34:00;100945.41;;;25.71;52.55
6567;BME280;3317;43.994;22.878;2023-06-19T05:36:27;100942.03;;;25.86;52.10
6567;BME280;3317;43.994;22.878;2023-06-19T05:38:56;100933.34;;;25.99;51.74
6567;BME280;3317;43.994;22.878;2023-06-19T05:41:23;100947.03;;;26.18;51.32
6567;BME280;3317;43.994;22.878;2023-06-19T05:43:50;100946.16;;;26.35;50.59
6567;BME280;3317;43.994;22.878;2023-06-19T05:46:16;100946.03;;;26.47;50.05
6567;BME280;3317;43.994;22.878;2023-06-19T05:48:44;100890.09;;;26.21;49.30
6567;BME280;3317;43.994;22.878;2023-06-19T05:51:11;100957.84;;;26.76;49.37
6567;BME280;3317;43.994;22.878;2023-06-19T05:53:38;100955.81;;;26.89;48.90
6567;BME280;3317;43.994;22.878;2023-06-19T05:56:07;100969.06;;;27.04;48.24
6567;BME280;3317;43.994;22.878;2023-06-19T05:58:34;100963.63;;;27.14;48.02
6567;BME280;3317;43.994;22.878;2023-06-19T06:01:01;100970.47;;;27.29;47.90
6567;BME280;3317;43.994;22.878;2023-06-19T06:03:28;100955.81;;;27.38;47.16
6567;BME280;3317;43.994;22.878;2023-06-19T06:05:56;100961.31;;;27.55;47.26
6567;BME280;3317;43.994;22.878;2023-06-19T06:08:28;100913.19;;;27.33;46.26
6567;BME280;3317;43.994;22.878;2023-06-19T06:10:55;100963.47;;;27.81;46.62
6567;BME280;3317;43.994;22.878;2023-06-19T06:13:24;100968.59;;;27.94;45.91
6567;BME280;3317;43.994;22.878;2023-06-19T06:15:52;100964.53;;;28.07;46.02
6567;BME280;3317;43.994;22.878;2023-06-19T06:18:19;100961.03;;;28.22;45.76
6567;BME280;3317;43.994;22.878;2023-06-19T06:20:46;100955.03;;;28.36;45.48
6567;BME280;3317;43.994;22.878;2023-06-19T06:23:13;100960.16;;;28.55;45.48
6567;BME280;3317;43.994;22.878;2023-06-19T06:25:42;100944.88;;;28.67;45.20
6567;BME280;3317;43.994;22.878;2023-06-19T06:28:11;100964.25;;;28.90;44.60
6567;BME280;3317;43.994;22.878;2023-06-19T06:30:41;100963.75;;;29.03;44.58
6567;BME280;3317;43.994;22.878;2023-06-19T06:33:08;100962.13;;;29.18;44.03
6567;BME280;3317;43.994;22.878;2023-06-19T06:35:35;100964.66;;;29.30;43.34
6567;BME280;3317;43.994;22.878;2023-06-19T06:38:03;100971.41;;;29.44;43.36
6567;BME280;3317;43.994;22.878;2023-06-19T06:40:30;100970.06;;;29.62;43.60
6567;BME280;3317;43.994;22.878;2023-06-19T06:42:57;100949.41;;;29.79;43.34
6567;BME280;3317;43.994;22.878;2023-06-19T06:45:24;100958.34;;;29.97;42.99
6567;BME280;3317;43.994;22.878;2023-06-19T06:47:53;100965.63;;;30.13;42.10
6567;BME280;3317;43.994;22.878;2023-06-19T06:50:20;100964.47;;;30.30;41.72
6567;BME280;3317;43.994;22.878;2023-06-19T06:52:47;100965.59;;;30.44;41.28
6567;BME280;3317;43.994;22.878;2023-06-19T06:55:14;100969.72;;;30.57;40.67
6567;BME280;3317;43.994;22.878;2023-06-19T06:57:41;100968.88;;;30.72;40.37
6567;BME280;3317;43.994;22.878;2023-06-19T07:00:10;100976.66;;;30.86;40.22
6567;BME280;3317;43.994;22.878;2023-06-19T07:02:38;100973.78;;;31.01;39.94
6567;BME280;3317;43.994;22.878;2023-06-19T07:05:09;100964.78;;;31.15;39.81
6567;BME280;3317;43.994;22.878;2023-06-19T07:07:36;100964.13;;;31.33;39.70
6567;BME280;3317;43.994;22.878;2023-06-19T07:10:04;100967.09;;;31.53;38.76
6567;BME280;3317;43.994;22.878;2023-06-19T07:12:31;100972.88;;;31.67;37.82
6567;BME280;3317;43.994;22.878;2023-06-19T07:14:59;100975.03;;;31.80;37.21
6567;BME280;3317;43.994;22.878;2023-06-19T07:17:26;100936.38;;;31.77;37.10
6567;BME280;3317;43.994;22.878;2023-06-19T07:19:53;100960.78;;;32.11;37.61
6567;BME280;3317;43.994;22.878;2023-06-19T07:22:21;100962.22;;;32.38;37.74
6567;BME280;3317;43.994;22.878;2023-06-19T07:24:48;100967.66;;;32.54;36.37
6567;BME280;3317;43.994;22.878;2023-06-19T07:27:15;100970.88;;;32.66;35.24
6567;BME280;3317;43.994;22.878;2023-06-19T07:29:44;100962.88;;;32.79;34.82
6567;BME280;3317;43.994;22.878;2023-06-19T07:32:11;100952.97;;;32.86;35.24
6567;BME280;3317;43.994;22.878;2023-06-19T07:34:38;100972.91;;;33.09;34.45
6567;BME280;3317;43.994;22.878;2023-06-19T07:37:05;100907.44;;;32.90;34.33
6567;BME280;3317;43.994;22.878;2023-06-19T07:39:34;100967.69;;;33.41;33.97
6567;BME280;3317;43.994;22.878;2023-06-19T07:42:01;100969.97;;;33.58;33.40
6567;BME280;3317;43.994;22.878;2023-06-19T07:44:28;100970.56;;;33.74;32.94
6567;BME280;3317;43.994;22.878;2023-06-19T07:46:55;100920.00;;;33.55;32.44
6567;BME280;3317;43.994;22.878;2023-06-19T07:49:22;100971.31;;;33.99;32.59
6567;BME280;3317;43.994;22.878;2023-06-19T07:51:49;100977.56;;;34.10;32.62
6567;BME280;3317;43.994;22.878;2023-06-19T07:54:16;100962.41;;;34.25;32.57
6567;BME280;3317;43.994;22.878;2023-06-19T07:56:45;100971.97;;;34.38;32.42
6567;BME280;3317;43.994;22.878;2023-06-19T07:59:12;100977.03;;;34.55;32.73
6567;BME280;3317;43.994;22.878;2023-06-19T08:01:39;100970.06;;;34.66;31.80
6567;BME280;3317;43.994;22.878;2023-06-19T08:04:06;100984.56;;;34.74;30.97
6567;BME280;3317;43.994;22.878;2023-06-19T08:06:33;100978.00;;;34.78;31.12
6567;BME280;3317;43.994;22.878;2023-06-19T08:09:00;100977.97;;;34.92;31.32
6567;BME280;3317;43.994;22.878;2023-06-19T08:11:27;100971.00;;;35.04;31.21
6567;BME280;3317;43.994;22.878;2023-06-19T08:13:56;100974.41;;;35.15;30.95
6567;BME280;3317;43.994;22.878;2023-06-19T08:16:24;100961.06;;;35.20;30.93
6567;BME280;3317;43.994;22.878;2023-06-19T08:18:51;100985.28;;;35.44;30.21
6567;BME280;3317;43.994;22.878;2023-06-19T08:21:18;100973.28;;;35.52;29.92
6567;BME280;3317;43.994;22.878;2023-06-19T08:23:46;100979.91;;;35.71;30.36
6567;BME280;3317;43.994;22.878;2023-06-19T08:26:13;100968.19;;;35.77;30.04
6567;BME280;3317;43.994;22.878;2023-06-19T08:28:40;100973.44;;;35.93;30.71
6567;BME280;3317;43.994;22.878;2023-06-19T08:31:09;100988.81;;;36.10;30.04
6567;BME280;3317;43.994;22.878;2023-06-19T08:33:36;100965.44;;;36.09;28.45
6567;BME280;3317;43.994;22.878;2023-06-19T08:36:04;100990.13;;;36.35;28.14
6567;BME280;3317;43.994;22.878;2023-06-19T08:38:31;100982.53;;;36.44;27.60
6567;BME280;3317;43.994;22.878;2023-06-19T08:40:58;100972.28;;;36.48;27.17
6567;BME280;3317;43.994;22.878;2023-06-19T08:43:25;100974.31;;;36.57;26.99
6567;BME280;3317;43.994;22.878;2023-06-19T08:45:56;100941.22;;;36.40;26.16
6567;BME280;3317;43.994;22.878;2023-06-19T08:48:28;100977.22;;;36.74;26.68
6567;BME280;3317;43.994;22.878;2023-06-19T08:50:55;100962.94;;;36.88;28.06
6567;BME280;3317;43.994;22.878;2023-06-19T08:53:23;100948.31;;;36.77;26.12
6567;BME280;3317;43.994;22.878;2023-06-19T08:55:50;100963.31;;;36.96;26.03
6567;BME280;3317;43.994;22.878;2023-06-19T08:58:21;100966.00;;;37.10;26.78
6567;BME280;3317;43.994;22.878;2023-06-19T09:00:49;100957.72;;;37.04;26.17
6567;BME280;3317;43.994;22.878;2023-06-19T09:03:20;100968.50;;;37.11;26.08
6567;BME280;3317;43.994;22.878;2023-06-19T09:05:49;100959.50;;;37.00;25.63
6567;BME280;3317;43.994;22.878;2023-06-19T09:08:16;100969.00;;;37.13;25.43
6567;BME280;3317;43.994;22.878;2023-06-19T09:10:54;100967.88;;;37.23;25.13
6567;BME280;3317;43.994;22.878;2023-06-19T09:13:21;100969.53;;;37.33;26.09
6567;BME280;3317;43.994;22.878;2023-06-19T09:15:57;100968.72;;;37.50;27.42
6567;BME280;3317;43.994;22.878;2023-06-19T09:18:25;100946.75;;;37.38;25.00
6567;BME280;3317;43.994;22.878;2023-06-19T09:20:54;100960.56;;;37.48;25.31
6567;BME280;3317;43.994;22.878;2023-06-19T09:23:21;100967.06;;;37.49;25.56
6567;BME280;3317;43.994;22.878;2023-06-19T09:25:50;100958.41;;;37.45;25.18
6567;BME280;3317;43.994;22.878;2023-06-19T09:28:19;100941.94;;;37.39;25.03
6567;BME280;3317;43.994;22.878;2023-06-19T09:30:57;100950.41;;;37.47;25.60
6567;BME280;3317;43.994;22.878;2023-06-19T09:33:25;100954.59;;;37.50;24.69
6567;BME280;3317;43.994;22.878;2023-06-19T09:35:54;100904.41;;;37.20;23.87
6567;BME280;3317;43.994;22.878;2023-06-19T09:38:24;100945.09;;;37.55;25.44
6567;BME280;3317;43.994;22.878;2023-06-19T09:40:52;100958.59;;;37.67;23.94
6567;BME280;3317;43.994;22.878;2023-06-19T09:43:24;100953.09;;;37.70;24.55
6567;BME280;3317;43.994;22.878;2023-06-19T09:45:55;100947.28;;;37.67;24.31
6567;BME280;3317;43.994;22.878;2023-06-19T09:48:27;100942.44;;;37.67;26.16
6567;BME280;3317;43.994;22.878;2023-06-19T09:51:00;100949.41;;;37.79;25.33
6567;BME280;3317;43.994;22.878;2023-06-19T09:53:27;100948.22;;;37.80;24.98
6567;BME280;3317;43.994;22.878;2023-06-19T09:55:55;100923.16;;;37.69;23.38
6567;BME280;3317;43.994;22.878;2023-06-19T09:58:22;100939.75;;;37.80;23.68
6567;BME280;3317;43.994;22.878;2023-06-19T10:00:50;100934.91;;;37.89;24.77
6567;BME280;3317;43.994;22.878;2023-06-19T10:03:17;100927.59;;;37.88;24.87
6567;BME280;3317;43.994;22.878;2023-06-19T10:05:44;100939.56;;;37.94;23.79
6567;BME280;3317;43.994;22.878;2023-06-19T10:08:13;100938.06;;;37.96;23.55
6567;BME280;3317;43.994;22.878;2023-06-19T10:10:46;100932.41;;;38.05;24.15
6567;BME280;3317;43.994;22.878;2023-06-19T10:13:15;100936.88;;;38.15;24.84
6567;BME280;3317;43.994;22.878;2023-06-19T10:15:43;100937.97;;;38.31;24.38
6567;BME280;3317;43.994;22.878;2023-06-19T10:18:14;100940.66;;;38.28;22.72
6567;BME280;3317;43.994;22.878;2023-06-19T10:20:43;100942.16;;;38.25;22.95
6567;BME280;3317;43.994;22.878;2023-06-19T10:23:14;100939.53;;;38.20;22.95
6567;BME280;3317;43.994;22.878;2023-06-19T10:25:44;100942.38;;;38.20;23.39
6567;BME280;3317;43.994;22.878;2023-06-19T10:28:19;100940.31;;;38.29;24.73
6567;BME280;3317;43.994;22.878;2023-06-19T10:30:52;100931.44;;;38.40;24.53
6567;BME280;3317;43.994;22.878;2023-06-19T10:33:23;100933.09;;;38.50;24.05
6567;BME280;3317;43.994;22.878;2023-06-19T10:35:51;100908.59;;;38.45;23.87
6567;BME280;3317;43.994;22.878;2023-06-19T10:38:20;100926.56;;;38.58;23.80
6567;BME280;3317;43.994;22.878;2023-06-19T10:40:47;100923.34;;;38.68;24.72
6567;BME280;3317;43.994;22.878;2023-06-19T10:43:20;100922.31;;;38.73;23.97
6567;BME280;3317;43.994;22.878;2023-06-19T10:45:50;100921.69;;;38.67;22.92
6567;BME280;3317;43.994;22.878;2023-06-19T10:48:19;100871.72;;;38.32;23.19
6567;BME280;3317;43.994;22.878;2023-06-19T10:50:47;100911.28;;;38.50;23.10
6567;BME280;3317;43.994;22.878;2023-06-19T10:53:24;100911.44;;;38.45;22.43
6567;BME280;3317;43.994;22.878;2023-06-19T10:55:55;100912.31;;;38.37;22.83
6567;BME280;3317;43.994;22.878;2023-06-19T10:58:23;100908.66;;;38.36;23.10
6567;BME280;3317;43.994;22.878;2023-06-19T11:00:50;100913.97;;;38.47;24.04
6567;BME280;3317;43.994;22.878;2023-06-19T11:03:17;100913.75;;;38.52;24.19
6567;BME280;3317;43.994;22.878;2023-06-19T11:05:45;100917.22;;;38.57;23.65
6567;BME280;3317;43.994;22.878;2023-06-19T11:08:18;100899.84;;;38.68;24.81
6567;BME280;3317;43.994;22.878;2023-06-19T11:10:46;100866.97;;;38.54;23.31
6567;BME280;3317;43.994;22.878;2023-06-19T11:13:14;100906.84;;;38.70;22.85
6567;BME280;3317;43.994;22.878;2023-06-19T11:15:42;100913.72;;;38.61;22.77
6567;BME280;3317;43.994;22.878;2023-06-19T11:18:09;100906.69;;;38.67;23.31
6567;BME280;3317;43.994;22.878;2023-06-19T11:20:43;100907.25;;;38.81;23.84
6567;BME280;3317;43.994;22.878;2023-06-19T11:23:11;100898.00;;;38.72;22.45
6567;BME280;3317;43.994;22.878;2023-06-19T11:25:39;100907.72;;;38.83;23.08
6567;BME280;3317;43.994;22.878;2023-06-19T11:28:12;100891.16;;;38.73;22.35
6567;BME280;3317;43.994;22.878;2023-06-19T11:30:40;100898.97;;;38.76;22.33
6567;BME280;3317;43.994;22.878;2023-06-19T11:33:16;100894.41;;;38.63;22.60
6567;BME280;3317;43.994;22.878;2023-06-19T11:35:48;100897.78;;;38.77;23.52
6567;BME280;3317;43.994;22.878;2023-06-19T11:38:19;100892.41;;;38.84;22.81
6567;BME280;3317;43.994;22.878;2023-06-19T11:40:47;100890.38;;;38.94;23.88
6567;BME280;3317;43.994;22.878;2023-06-19T11:43:25;100898.94;;;39.06;25.06
6567;BME280;3317;43.994;22.878;2023-06-19T11:45:52;100897.06;;;39.10;23.97
6567;BME280;3317;43.994;22.878;2023-06-19T11:48:22;100887.34;;;39.20;25.21
6567;BME280;3317;43.994;22.878;2023-06-19T11:50:50;100881.28;;;39.22;22.75
6567;BME280;3317;43.994;22.878;2023-06-19T11:53:18;100886.16;;;39.21;23.08
6567;BME280;3317;43.994;22.878;2023-06-19T11:55:45;100880.69;;;39.16;23.30
6567;BME280;3317;43.994;22.878;2023-06-19T11:58:12;100884.78;;;39.06;22.49
6567;BME280;3317;43.994;22.878;2023-06-19T12:00:42;100874.69;;;38.96;23.12
6567;BME280;3317;43.994;22.878;2023-06-19T12:03:09;100881.69;;;38.99;24.37
6567;BME280;3317;43.994;22.878;2023-06-19T12:05:37;100871.16;;;38.99;23.69
6567;BME280;3317;43.994;22.878;2023-06-19T12:08:04;100867.28;;;38.83;23.01
6567;BME280;3317;43.994;22.878;2023-06-19T12:10:32;100871.69;;;38.71;22.84
6567;BME280;3317;43.994;22.878;2023-06-19T12:12:59;100868.22;;;38.66;24.00
6567;BME280;3317;43.994;22.878;2023-06-19T12:15:26;100860.91;;;38.65;24.27
6567;BME280;3317;43.994;22.878;2023-06-19T12:17:55;100822.88;;;38.44;25.21
6567;BME280;3317;43.994;22.878;2023-06-19T12:20:23;100859.16;;;38.51;22.68
6567;BME280;3317;43.994;22.878;2023-06-19T12:22:51;100846.88;;;38.38;22.20
6567;BME280;3317;43.994;22.878;2023-06-19T12:25:18;100851.94;;;38.24;23.03
6567;BME280;3317;43.994;22.878;2023-06-19T12:27:45;100856.66;;;38.20;24.05
6567;BME280;3317;43.994;22.878;2023-06-19T12:30:12;100855.69;;;38.15;24.35
6567;BME280;3317;43.994;22.878;2023-06-19T12:32:39;100855.22;;;38.04;24.53
6567;BME280;3317;43.994;22.878;2023-06-19T12:35:09;100846.41;;;37.97;25.26
6567;BME280;3317;43.994;22.878;2023-06-19T12:37:36;100848.56;;;38.00;24.86
6567;BME280;3317;43.994;22.878;2023-06-19T12:40:03;100848.06;;;37.98;25.05
6567;BME280;3317;43.994;22.878;2023-06-19T12:42:33;100848.91;;;37.90;25.36
6567;BME280;3317;43.994;22.878;2023-06-19T12:45:01;100849.28;;;37.80;24.63
6567;BME280;3317;43.994;22.878;2023-06-19T12:47:28;100845.69;;;37.70;24.57
6567;BME280;3317;43.994;22.878;2023-06-19T12:49:55;100842.72;;;37.58;24.65
6567;BME280;3317;43.994;22.878;2023-06-19T12:52:23;100845.19;;;37.42;23.93
6567;BME280;3317;43.994;22.878;2023-06-19T12:54:50;100841.91;;;37.31;24.55
6567;BME280;3317;43.994;22.878;2023-06-19T12:57:17;100841.91;;;37.13;24.52
6567;BME280;3317;43.994;22.878;2023-06-19T12:59:44;100831.47;;;37.05;25.37
6567;BME280;3317;43.994;22.878;2023-06-19T13:02:11;100821.13;;;36.91;25.06
6567;BME280;3317;43.994;22.878;2023-06-19T13:04:38;100832.41;;;36.74;24.94